sensor_id;sensor_type;location;lat;lon;timestamp;P1;durP1;ratioP1;P2;durP2;ratioP2
44995;SDS011;30729;49.486;10.792;2023-06-24T00:00:30;8.50;;;4.47;;
44995;SDS011;30729;49.486;10.792;2023-06-24T00:02:55;8.00;;;4.35;;
44995;SDS011;30729;49.486;10.792;2023-06-24T00:05:26;8.82;;;4.25;;
44995;SDS011;30729;49.486;10.792;2023-06-24T00:07:51;8.48;;;4.47;;
44995;SDS011;30729;49.486;10.792;2023-06-24T00:10:17;8.18;;;4.20;;
44995;SDS011;30729;49.486;10.792;2023-06-24T00:12:43;7.68;;;4.00;;
44995;SDS011;30729;49.486;10.792;2023-06-24T00:15:08;8.65;;;3.97;;
44995;SDS011;30729;49.486;10.792;2023-06-24T00:17:35;7.80;;;4.38;;
44995;SDS011;30729;49.486;10.792;2023-06-24T00:20:00;7.18;;;4.30;;
44995;SDS011;30729;49.486;10.792;2023-06-24T00:22:25;9.40;;;4.22;;
44995;SDS011;30729;49.486;10.792;2023-06-24T00:24:50;9.88;;;4.75;;
44995;SDS011;30729;49.486;10.792;2023-06-24T00:27:15;7.25;;;3.83;;
44995;SDS011;30729;49.486;10.792;2023-06-24T00:29:40;10.05;;;4.50;;
44995;SDS011;30729;49.486;10.792;2023-06-24T00:32:06;7.67;;;3.90;;
44995;SDS011;30729;49.486;10.792;2023-06-24T00:34:31;6.93;;;4.47;;
44995;SDS011;30729;49.486;10.792;2023-06-24T00:36:56;6.87;;;4.23;;
44995;SDS011;30729;49.486;10.792;2023-06-24T00:39:21;7.65;;;4.45;;
44995;SDS011;30729;49.486;10.792;2023-06-24T00:41:47;8.60;;;4.03;;
44995;SDS011;30729;49.486;10.792;2023-06-24T00:44:12;7.10;;;4.10;;
44995;SDS011;30729;49.486;10.792;2023-06-24T00:46:38;7.70;;;3.90;;
44995;SDS011;30729;49.486;10.792;2023-06-24T00:49:04;8.07;;;3.75;;
44995;SDS011;30729;49.486;10.792;2023-06-24T00:51:30;9.00;;;4.65;;
44995;SDS011;30729;49.486;10.792;2023-06-24T00:53:56;8.27;;;4.28;;
44995;SDS011;30729;49.486;10.792;2023-06-24T00:56:22;7.30;;;3.88;;
44995;SDS011;30729;49.486;10.792;2023-06-24T00:58:50;7.55;;;4.10;;
44995;SDS011;30729;49.486;10.792;2023-06-24T01:01:17;8.43;;;4.38;;
44995;SDS011;30729;49.486;10.792;2023-06-24T01:03:42;7.35;;;4.10;;
44995;SDS011;30729;49.486;10.792;2023-06-24T01:06:08;7.20;;;4.10;;
44995;SDS011;30729;49.486;10.792;2023-06-24T01:08:33;6.97;;;4.07;;
44995;SDS011;30729;49.486;10.792;2023-06-24T01:10:59;8.05;;;4.25;;
44995;SDS011;30729;49.486;10.792;2023-06-24T01:13:24;8.15;;;4.18;;
44995;SDS011;30729;49.486;10.792;2023-06-24T01:15:49;8.18;;;4.10;;
44995;SDS011;30729;49.486;10.792;2023-06-24T01:18:21;8.17;;;4.00;;
44995;SDS011;30729;49.486;10.792;2023-06-24T01:20:49;8.05;;;4.28;;
44995;SDS011;30729;49.486;10.792;2023-06-24T01:25:59;7.85;;;4.40;;
44995;SDS011;30729;49.486;10.792;2023-06-24T01:28:30;9.95;;;4.85;;
44995;SDS011;30729;49.486;10.792;2023-06-24T01:33:29;8.60;;;4.68;;
44995;SDS011;30729;49.486;10.792;2023-06-24T01:35:57;9.20;;;5.18;;
44995;SDS011;30729;49.486;10.792;2023-06-24T01:38:27;8.70;;;5.00;;
44995;SDS011;30729;49.486;10.792;2023-06-24T01:40:56;9.88;;;5.30;;
44995;SDS011;30729;49.486;10.792;2023-06-24T01:43:22;8.48;;;4.70;;
44995;SDS011;30729;49.486;10.792;2023-06-24T01:45:49;8.68;;;4.80;;
44995;SDS011;30729;49.486;10.792;2023-06-24T01:48:16;8.50;;;4.22;;
44995;SDS011;30729;49.486;10.792;2023-06-24T01:50:44;8.82;;;5.18;;
44995;SDS011;30729;49.486;10.792;2023-06-24T01:53:09;11.55;;;5.80;;
44995;SDS011;30729;49.486;10.792;2023-06-24T01:55:39;11.35;;;5.60;;
44995;SDS011;30729;49.486;10.792;2023-06-24T01:58:06;10.43;;;4.78;;
44995;SDS011;30729;49.486;10.792;2023-06-24T02:00:32;9.75;;;5.10;;
44995;SDS011;30729;49.486;10.792;2023-06-24T02:02:58;9.98;;;5.43;;
44995;SDS011;30729;49.486;10.792;2023-06-24T02:05:24;9.00;;;5.10;;
44995;SDS011;30729;49.486;10.792;2023-06-24T02:07:49;9.32;;;4.90;;
44995;SDS011;30729;49.486;10.792;2023-06-24T02:10:16;8.93;;;5.00;;
44995;SDS011;30729;49.486;10.792;2023-06-24T02:12:42;8.88;;;4.72;;
44995;SDS011;30729;49.486;10.792;2023-06-24T02:15:08;8.82;;;5.32;;
44995;SDS011;30729;49.486;10.792;2023-06-24T02:17:34;10.00;;;5.82;;
44995;SDS011;30729;49.486;10.792;2023-06-24T02:19:59;10.77;;;5.30;;
44995;SDS011;30729;49.486;10.792;2023-06-24T02:22:25;9.50;;;4.47;;
44995;SDS011;30729;49.486;10.792;2023-06-24T02:24:50;9.25;;;5.22;;
44995;SDS011;30729;49.486;10.792;2023-06-24T02:27:16;8.27;;;4.88;;
44995;SDS011;30729;49.486;10.792;2023-06-24T02:29:41;9.65;;;5.43;;
44995;SDS011;30729;49.486;10.792;2023-06-24T02:32:07;9.20;;;5.40;;
44995;SDS011;30729;49.486;10.792;2023-06-24T02:34:32;10.23;;;5.53;;
44995;SDS011;30729;49.486;10.792;2023-06-24T02:36:57;9.45;;;5.15;;
44995;SDS011;30729;49.486;10.792;2023-06-24T02:39:22;10.90;;;6.10;;
44995;SDS011;30729;49.486;10.792;2023-06-24T02:41:48;9.45;;;5.65;;
44995;SDS011;30729;49.486;10.792;2023-06-24T02:44:14;9.55;;;5.38;;
44995;SDS011;30729;49.486;10.792;2023-06-24T02:46:39;9.65;;;5.32;;
44995;SDS011;30729;49.486;10.792;2023-06-24T02:49:05;11.63;;;5.60;;
44995;SDS011;30729;49.486;10.792;2023-06-24T02:51:30;11.57;;;5.38;;
44995;SDS011;30729;49.486;10.792;2023-06-24T02:53:56;10.30;;;5.10;;
44995;SDS011;30729;49.486;10.792;2023-06-24T02:56:23;9.02;;;5.35;;
44995;SDS011;30729;49.486;10.792;2023-06-24T02:58:50;10.40;;;5.40;;
44995;SDS011;30729;49.486;10.792;2023-06-24T03:01:17;8.85;;;4.65;;
44995;SDS011;30729;49.486;10.792;2023-06-24T03:03:42;9.25;;;5.13;;
44995;SDS011;30729;49.486;10.792;2023-06-24T03:06:08;9.75;;;5.15;;
44995;SDS011;30729;49.486;10.792;2023-06-24T03:08:37;9.35;;;5.18;;
44995;SDS011;30729;49.486;10.792;2023-06-24T03:11:02;8.75;;;5.00;;
44995;SDS011;30729;49.486;10.792;2023-06-24T03:13:27;9.55;;;5.40;;
44995;SDS011;30729;49.486;10.792;2023-06-24T03:15:52;9.27;;;5.40;;
44995;SDS011;30729;49.486;10.792;2023-06-24T03:18:17;8.93;;;5.05;;
44995;SDS011;30729;49.486;10.792;2023-06-24T03:20:43;8.73;;;5.10;;
44995;SDS011;30729;49.486;10.792;2023-06-24T03:23:08;9.20;;;5.67;;
44995;SDS011;30729;49.486;10.792;2023-06-24T03:25:34;8.57;;;5.53;;
44995;SDS011;30729;49.486;10.792;2023-06-24T03:27:59;9.30;;;5.43;;
44995;SDS011;30729;49.486;10.792;2023-06-24T03:30:29;8.68;;;5.13;;
44995;SDS011;30729;49.486;10.792;2023-06-24T03:32:54;9.07;;;5.10;;
44995;SDS011;30729;49.486;10.792;2023-06-24T03:35:19;9.68;;;5.47;;
44995;SDS011;30729;49.486;10.792;2023-06-24T03:37:44;9.00;;;5.60;;
44995;SDS011;30729;49.486;10.792;2023-06-24T03:40:09;8.75;;;5.55;;
44995;SDS011;30729;49.486;10.792;2023-06-24T03:42:35;9.48;;;5.20;;
44995;SDS011;30729;49.486;10.792;2023-06-24T03:45:00;8.93;;;5.40;;
44995;SDS011;30729;49.486;10.792;2023-06-24T03:47:25;10.25;;;5.78;;
44995;SDS011;30729;49.486;10.792;2023-06-24T03:49:50;10.18;;;5.43;;
44995;SDS011;30729;49.486;10.792;2023-06-24T03:52:16;9.70;;;5.57;;
44995;SDS011;30729;49.486;10.792;2023-06-24T03:54:41;11.10;;;6.13;;
44995;SDS011;30729;49.486;10.792;2023-06-24T03:57:07;9.43;;;5.75;;
44995;SDS011;30729;49.486;10.792;2023-06-24T03:59:32;9.18;;;4.93;;
44995;SDS011;30729;49.486;10.792;2023-06-24T04:01:58;10.95;;;5.55;;
44995;SDS011;30729;49.486;10.792;2023-06-24T04:04:23;9.45;;;5.90;;
44995;SDS011;30729;49.486;10.792;2023-06-24T04:06:48;9.30;;;5.22;;
44995;SDS011;30729;49.486;10.792;2023-06-24T04:09:13;9.43;;;5.38;;
44995;SDS011;30729;49.486;10.792;2023-06-24T04:11:38;11.07;;;5.97;;
44995;SDS011;30729;49.486;10.792;2023-06-24T04:14:04;10.00;;;5.38;;
44995;SDS011;30729;49.486;10.792;2023-06-24T04:16:31;9.45;;;5.30;;
44995;SDS011;30729;49.486;10.792;2023-06-24T04:18:56;8.57;;;5.33;;
44995;SDS011;30729;49.486;10.792;2023-06-24T04:21:21;12.65;;;5.97;;
44995;SDS011;30729;49.486;10.792;2023-06-24T04:23:47;11.75;;;5.93;;
44995;SDS011;30729;49.486;10.792;2023-06-24T04:26:12;11.40;;;6.32;;
44995;SDS011;30729;49.486;10.792;2023-06-24T04:28:37;10.07;;;6.03;;
44995;SDS011;30729;49.486;10.792;2023-06-24T04:31:03;10.75;;;5.75;;
44995;SDS011;30729;49.486;10.792;2023-06-24T04:33:28;9.60;;;5.40;;
44995;SDS011;30729;49.486;10.792;2023-06-24T04:35:54;9.10;;;5.73;;
44995;SDS011;30729;49.486;10.792;2023-06-24T04:38:19;13.60;;;6.30;;
44995;SDS011;30729;49.486;10.792;2023-06-24T04:40:44;8.83;;;5.53;;
44995;SDS011;30729;49.486;10.792;2023-06-24T04:43:10;9.13;;;5.47;;
44995;SDS011;30729;49.486;10.792;2023-06-24T04:45:35;9.35;;;5.32;;
44995;SDS011;30729;49.486;10.792;2023-06-24T04:48:00;10.70;;;5.90;;
44995;SDS011;30729;49.486;10.792;2023-06-24T04:50:25;9.63;;;5.68;;
44995;SDS011;30729;49.486;10.792;2023-06-24T04:52:54;10.02;;;5.35;;
44995;SDS011;30729;49.486;10.792;2023-06-24T04:55:20;9.68;;;5.53;;
44995;SDS011;30729;49.486;10.792;2023-06-24T04:57:46;9.55;;;5.32;;
44995;SDS011;30729;49.486;10.792;2023-06-24T05:00:12;10.32;;;5.90;;
44995;SDS011;30729;49.486;10.792;2023-06-24T05:02:37;10.00;;;5.30;;
44995;SDS011;30729;49.486;10.792;2023-06-24T05:05:02;9.10;;;5.45;;
44995;SDS011;30729;49.486;10.792;2023-06-24T05:07:28;10.25;;;5.57;;
44995;SDS011;30729;49.486;10.792;2023-06-24T05:09:53;9.63;;;5.55;;
44995;SDS011;30729;49.486;10.792;2023-06-24T05:12:18;8.75;;;5.45;;
44995;SDS011;30729;49.486;10.792;2023-06-24T05:14:43;8.48;;;5.20;;
44995;SDS011;30729;49.486;10.792;2023-06-24T05:17:08;11.82;;;6.00;;
44995;SDS011;30729;49.486;10.792;2023-06-24T05:19:33;9.55;;;5.50;;
44995;SDS011;30729;49.486;10.792;2023-06-24T05:21:58;9.60;;;5.38;;
44995;SDS011;30729;49.486;10.792;2023-06-24T05:24:24;9.13;;;5.00;;
44995;SDS011;30729;49.486;10.792;2023-06-24T05:26:49;9.13;;;5.00;;
44995;SDS011;30729;49.486;10.792;2023-06-24T05:29:15;11.32;;;6.63;;
44995;SDS011;30729;49.486;10.792;2023-06-24T05:31:40;8.55;;;5.00;;
44995;SDS011;30729;49.486;10.792;2023-06-24T05:34:05;8.80;;;4.72;;
44995;SDS011;30729;49.486;10.792;2023-06-24T05:36:30;8.07;;;4.80;;
44995;SDS011;30729;49.486;10.792;2023-06-24T05:38:56;9.30;;;5.20;;
44995;SDS011;30729;49.486;10.792;2023-06-24T05:41:21;10.57;;;5.35;;
44995;SDS011;30729;49.486;10.792;2023-06-24T05:43:46;9.33;;;5.30;;
44995;SDS011;30729;49.486;10.792;2023-06-24T05:46:11;8.65;;;4.80;;
44995;SDS011;30729;49.486;10.792;2023-06-24T05:48:36;9.35;;;4.80;;
44995;SDS011;30729;49.486;10.792;2023-06-24T05:51:02;8.05;;;5.05;;
44995;SDS011;30729;49.486;10.792;2023-06-24T05:53:27;8.43;;;4.90;;
44995;SDS011;30729;49.486;10.792;2023-06-24T05:55:52;8.68;;;5.18;;
44995;SDS011;30729;49.486;10.792;2023-06-24T05:58:17;9.63;;;5.22;;
44995;SDS011;30729;49.486;10.792;2023-06-24T06:00:42;8.45;;;4.90;;
44995;SDS011;30729;49.486;10.792;2023-06-24T06:03:07;9.63;;;5.68;;
44995;SDS011;30729;49.486;10.792;2023-06-24T06:05:34;10.43;;;5.82;;
44995;SDS011;30729;49.486;10.792;2023-06-24T06:07:59;9.27;;;5.10;;
44995;SDS011;30729;49.486;10.792;2023-06-24T06:10:24;9.00;;;5.13;;
44995;SDS011;30729;49.486;10.792;2023-06-24T06:12:49;9.32;;;5.35;;
44995;SDS011;30729;49.486;10.792;2023-06-24T06:15:14;8.83;;;4.80;;
44995;SDS011;30729;49.486;10.792;2023-06-24T06:17:40;11.25;;;5.32;;
44995;SDS011;30729;49.486;10.792;2023-06-24T06:20:06;8.38;;;4.88;;
44995;SDS011;30729;49.486;10.792;2023-06-24T06:22:31;8.10;;;5.10;;
44995;SDS011;30729;49.486;10.792;2023-06-24T06:25:02;8.43;;;5.22;;
44995;SDS011;30729;49.486;10.792;2023-06-24T06:27:27;9.03;;;5.23;;
44995;SDS011;30729;49.486;10.792;2023-06-24T06:29:52;9.75;;;4.75;;
44995;SDS011;30729;49.486;10.792;2023-06-24T06:32:17;10.27;;;5.50;;
44995;SDS011;30729;49.486;10.792;2023-06-24T06:34:42;10.32;;;5.50;;
44995;SDS011;30729;49.486;10.792;2023-06-24T06:37:07;10.70;;;5.80;;
44995;SDS011;30729;49.486;10.792;2023-06-24T06:39:33;10.10;;;5.10;;
44995;SDS011;30729;49.486;10.792;2023-06-24T06:41:58;8.18;;;5.15;;
44995;SDS011;30729;49.486;10.792;2023-06-24T06:44:23;8.88;;;5.22;;
44995;SDS011;30729;49.486;10.792;2023-06-24T06:46:48;9.40;;;5.28;;
44995;SDS011;30729;49.486;10.792;2023-06-24T06:49:14;8.77;;;4.65;;
44995;SDS011;30729;49.486;10.792;2023-06-24T06:51:39;6.70;;;3.58;;
44995;SDS011;30729;49.486;10.792;2023-06-24T06:54:04;7.90;;;3.92;;
44995;SDS011;30729;49.486;10.792;2023-06-24T06:56:29;7.70;;;3.90;;
44995;SDS011;30729;49.486;10.792;2023-06-24T06:58:54;7.20;;;4.17;;
44995;SDS011;30729;49.486;10.792;2023-06-24T07:01:19;8.18;;;4.00;;
44995;SDS011;30729;49.486;10.792;2023-06-24T07:03:45;8.10;;;3.83;;
44995;SDS011;30729;49.486;10.792;2023-06-24T07:06:10;7.03;;;3.90;;
44995;SDS011;30729;49.486;10.792;2023-06-24T07:08:35;10.00;;;4.55;;
44995;SDS011;30729;49.486;10.792;2023-06-24T07:11:00;8.73;;;3.57;;
44995;SDS011;30729;49.486;10.792;2023-06-24T07:13:26;9.13;;;3.75;;
44995;SDS011;30729;49.486;10.792;2023-06-24T07:15:51;7.40;;;3.65;;
44995;SDS011;30729;49.486;10.792;2023-06-24T07:18:16;8.38;;;3.13;;
44995;SDS011;30729;49.486;10.792;2023-06-24T07:20:41;8.05;;;3.88;;
44995;SDS011;30729;49.486;10.792;2023-06-24T07:23:06;6.10;;;3.55;;
44995;SDS011;30729;49.486;10.792;2023-06-24T07:25:31;8.60;;;3.77;;
44995;SDS011;30729;49.486;10.792;2023-06-24T07:27:56;7.63;;;4.23;;
44995;SDS011;30729;49.486;10.792;2023-06-24T07:30:22;5.90;;;3.33;;
44995;SDS011;30729;49.486;10.792;2023-06-24T07:32:47;5.80;;;3.47;;
44995;SDS011;30729;49.486;10.792;2023-06-24T07:35:12;8.30;;;4.27;;
44995;SDS011;30729;49.486;10.792;2023-06-24T07:37:38;6.85;;;3.58;;
44995;SDS011;30729;49.486;10.792;2023-06-24T07:40:03;7.10;;;3.85;;
44995;SDS011;30729;49.486;10.792;2023-06-24T07:42:30;7.55;;;4.18;;
44995;SDS011;30729;49.486;10.792;2023-06-24T07:44:55;7.00;;;3.60;;
44995;SDS011;30729;49.486;10.792;2023-06-24T07:47:20;7.10;;;3.63;;
44995;SDS011;30729;49.486;10.792;2023-06-24T07:49:45;7.85;;;4.10;;
44995;SDS011;30729;49.486;10.792;2023-06-24T07:52:10;8.07;;;3.90;;
44995;SDS011;30729;49.486;10.792;2023-06-24T07:54:36;8.38;;;3.80;;
44995;SDS011;30729;49.486;10.792;2023-06-24T07:57:01;6.75;;;3.78;;
44995;SDS011;30729;49.486;10.792;2023-06-24T07:59:26;7.50;;;3.65;;
44995;SDS011;30729;49.486;10.792;2023-06-24T08:01:51;6.38;;;3.65;;
44995;SDS011;30729;49.486;10.792;2023-06-24T08:04:16;5.80;;;3.58;;
44995;SDS011;30729;49.486;10.792;2023-06-24T08:06:41;7.07;;;3.55;;
44995;SDS011;30729;49.486;10.792;2023-06-24T08:09:07;6.97;;;3.77;;
44995;SDS011;30729;49.486;10.792;2023-06-24T08:11:32;8.37;;;3.67;;
44995;SDS011;30729;49.486;10.792;2023-06-24T08:13:57;7.47;;;4.70;;
44995;SDS011;30729;49.486;10.792;2023-06-24T08:16:22;6.90;;;3.60;;
44995;SDS011;30729;49.486;10.792;2023-06-24T08:18:47;8.17;;;4.33;;
44995;SDS011;30729;49.486;10.792;2023-06-24T08:21:13;6.25;;;3.83;;
44995;SDS011;30729;49.486;10.792;2023-06-24T08:23:38;7.65;;;3.40;;
44995;SDS011;30729;49.486;10.792;2023-06-24T08:26:03;6.95;;;4.63;;
44995;SDS011;30729;49.486;10.792;2023-06-24T08:28:28;6.72;;;3.72;;
44995;SDS011;30729;49.486;10.792;2023-06-24T08:30:54;7.50;;;3.77;;
44995;SDS011;30729;49.486;10.792;2023-06-24T08:33:19;6.47;;;3.90;;
44995;SDS011;30729;49.486;10.792;2023-06-24T08:35:44;8.43;;;4.13;;
44995;SDS011;30729;49.486;10.792;2023-06-24T08:38:09;6.50;;;3.97;;
44995;SDS011;30729;49.486;10.792;2023-06-24T08:40:34;7.07;;;3.72;;
44995;SDS011;30729;49.486;10.792;2023-06-24T08:42:59;8.07;;;3.50;;
44995;SDS011;30729;49.486;10.792;2023-06-24T08:45:25;5.65;;;3.47;;
44995;SDS011;30729;49.486;10.792;2023-06-24T08:47:50;7.23;;;4.17;;
44995;SDS011;30729;49.486;10.792;2023-06-24T08:50:15;6.40;;;3.70;;
44995;SDS011;30729;49.486;10.792;2023-06-24T08:52:42;7.50;;;4.05;;
44995;SDS011;30729;49.486;10.792;2023-06-24T08:55:07;6.00;;;3.33;;
44995;SDS011;30729;49.486;10.792;2023-06-24T08:57:33;6.43;;;3.63;;
44995;SDS011;30729;49.486;10.792;2023-06-24T08:59:58;5.85;;;3.15;;
44995;SDS011;30729;49.486;10.792;2023-06-24T09:02:23;6.00;;;3.30;;
44995;SDS011;30729;49.486;10.792;2023-06-24T09:04:50;6.55;;;3.28;;
44995;SDS011;30729;49.486;10.792;2023-06-24T09:07:23;5.85;;;2.80;;
44995;SDS011;30729;49.486;10.792;2023-06-24T09:09:48;5.45;;;2.78;;
44995;SDS011;30729;49.486;10.792;2023-06-24T09:12:13;5.78;;;2.88;;
44995;SDS011;30729;49.486;10.792;2023-06-24T09:14:39;4.57;;;2.30;;
44995;SDS011;30729;49.486;10.792;2023-06-24T09:17:05;5.28;;;2.45;;
44995;SDS011;30729;49.486;10.792;2023-06-24T09:19:30;4.87;;;2.40;;
44995;SDS011;30729;49.486;10.792;2023-06-24T09:22:03;5.68;;;2.83;;
44995;SDS011;30729;49.486;10.792;2023-06-24T09:24:35;5.50;;;2.75;;
44995;SDS011;30729;49.486;10.792;2023-06-24T09:27:01;6.38;;;3.22;;
44995;SDS011;30729;49.486;10.792;2023-06-24T09:29:27;4.85;;;3.00;;
44995;SDS011;30729;49.486;10.792;2023-06-24T09:31:52;6.03;;;2.65;;
44995;SDS011;30729;49.486;10.792;2023-06-24T09:34:18;5.80;;;2.90;;
44995;SDS011;30729;49.486;10.792;2023-06-24T09:36:43;4.90;;;2.70;;
44995;SDS011;30729;49.486;10.792;2023-06-24T09:39:09;4.95;;;2.58;;
44995;SDS011;30729;49.486;10.792;2023-06-24T09:41:35;4.47;;;2.60;;
44995;SDS011;30729;49.486;10.792;2023-06-24T09:44:01;5.00;;;3.13;;
44995;SDS011;30729;49.486;10.792;2023-06-24T09:46:27;5.35;;;2.88;;
44995;SDS011;30729;49.486;10.792;2023-06-24T09:48:52;4.35;;;2.72;;
44995;SDS011;30729;49.486;10.792;2023-06-24T09:51:18;5.07;;;2.78;;
44995;SDS011;30729;49.486;10.792;2023-06-24T09:53:43;4.90;;;3.00;;
44995;SDS011;30729;49.486;10.792;2023-06-24T09:56:09;8.63;;;3.35;;
44995;SDS011;30729;49.486;10.792;2023-06-24T09:58:35;4.72;;;2.67;;
44995;SDS011;30729;49.486;10.792;2023-06-24T10:01:01;5.03;;;3.13;;
44995;SDS011;30729;49.486;10.792;2023-06-24T10:03:27;6.35;;;3.22;;
44995;SDS011;30729;49.486;10.792;2023-06-24T10:05:52;5.72;;;3.38;;
44995;SDS011;30729;49.486;10.792;2023-06-24T10:08:18;5.07;;;3.25;;
44995;SDS011;30729;49.486;10.792;2023-06-24T10:10:43;6.80;;;3.13;;
44995;SDS011;30729;49.486;10.792;2023-06-24T10:13:08;5.93;;;3.53;;
44995;SDS011;30729;49.486;10.792;2023-06-24T10:15:34;4.85;;;3.10;;
44995;SDS011;30729;49.486;10.792;2023-06-24T10:18:02;5.30;;;3.70;;
44995;SDS011;30729;49.486;10.792;2023-06-24T10:20:28;6.28;;;3.55;;
44995;SDS011;30729;49.486;10.792;2023-06-24T10:22:53;6.10;;;3.25;;
44995;SDS011;30729;49.486;10.792;2023-06-24T10:25:18;7.77;;;3.50;;
44995;SDS011;30729;49.486;10.792;2023-06-24T10:27:44;5.00;;;2.92;;
44995;SDS011;30729;49.486;10.792;2023-06-24T10:30:18;5.07;;;3.38;;
44995;SDS011;30729;49.486;10.792;2023-06-24T10:32:44;6.70;;;3.67;;
44995;SDS011;30729;49.486;10.792;2023-06-24T10:35:25;5.68;;;3.40;;
44995;SDS011;30729;49.486;10.792;2023-06-24T10:37:58;5.85;;;3.53;;
44995;SDS011;30729;49.486;10.792;2023-06-24T10:40:37;5.65;;;3.28;;
44995;SDS011;30729;49.486;10.792;2023-06-24T10:43:22;5.78;;;3.38;;
44995;SDS011;30729;49.486;10.792;2023-06-24T10:48:13;6.10;;;3.30;;
44995;SDS011;30729;49.486;10.792;2023-06-24T10:50:38;5.43;;;3.53;;
44995;SDS011;30729;49.486;10.792;2023-06-24T10:53:07;6.07;;;3.70;;
44995;SDS011;30729;49.486;10.792;2023-06-24T10:55:33;6.43;;;3.72;;
44995;SDS011;30729;49.486;10.792;2023-06-24T10:58:07;5.80;;;3.65;;
44995;SDS011;30729;49.486;10.792;2023-06-24T11:00:32;5.70;;;3.22;;
44995;SDS011;30729;49.486;10.792;2023-06-24T11:02:57;5.50;;;3.47;;
44995;SDS011;30729;49.486;10.792;2023-06-24T11:05:22;4.70;;;3.10;;
44995;SDS011;30729;49.486;10.792;2023-06-24T11:07:47;4.80;;;3.13;;
44995;SDS011;30729;49.486;10.792;2023-06-24T11:10:14;5.63;;;3.80;;
44995;SDS011;30729;49.486;10.792;2023-06-24T11:12:39;4.95;;;3.63;;
44995;SDS011;30729;49.486;10.792;2023-06-24T11:17:30;5.55;;;3.70;;
44995;SDS011;30729;49.486;10.792;2023-06-24T11:19:56;6.07;;;3.90;;
44995;SDS011;30729;49.486;10.792;2023-06-24T11:22:22;4.68;;;2.70;;
44995;SDS011;30729;49.486;10.792;2023-06-24T11:24:47;4.47;;;2.80;;
44995;SDS011;30729;49.486;10.792;2023-06-24T11:27:12;5.03;;;2.80;;
44995;SDS011;30729;49.486;10.792;2023-06-24T11:29:38;5.68;;;3.10;;
44995;SDS011;30729;49.486;10.792;2023-06-24T11:32:06;4.43;;;2.65;;
44995;SDS011;30729;49.486;10.792;2023-06-24T11:34:31;4.78;;;2.85;;
44995;SDS011;30729;49.486;10.792;2023-06-24T11:36:57;4.27;;;2.70;;
44995;SDS011;30729;49.486;10.792;2023-06-24T11:39:22;5.77;;;3.20;;
44995;SDS011;30729;49.486;10.792;2023-06-24T11:41:48;6.13;;;3.80;;
44995;SDS011;30729;49.486;10.792;2023-06-24T11:44:14;4.45;;;3.05;;
44995;SDS011;30729;49.486;10.792;2023-06-24T11:46:39;5.27;;;3.37;;
44995;SDS011;30729;49.486;10.792;2023-06-24T11:49:05;5.38;;;3.20;;
44995;SDS011;30729;49.486;10.792;2023-06-24T11:51:30;5.55;;;4.05;;
44995;SDS011;30729;49.486;10.792;2023-06-24T11:53:58;6.90;;;4.63;;
44995;SDS011;30729;49.486;10.792;2023-06-24T11:56:33;6.75;;;3.72;;
44995;SDS011;30729;49.486;10.792;2023-06-24T11:58:58;5.80;;;4.00;;
44995;SDS011;30729;49.486;10.792;2023-06-24T12:01:29;5.40;;;3.97;;
44995;SDS011;30729;49.486;10.792;2023-06-24T12:03:55;5.07;;;3.30;;
44995;SDS011;30729;49.486;10.792;2023-06-24T12:06:20;5.18;;;3.33;;
44995;SDS011;30729;49.486;10.792;2023-06-24T12:08:45;7.10;;;3.60;;
44995;SDS011;30729;49.486;10.792;2023-06-24T12:11:10;7.30;;;3.85;;
44995;SDS011;30729;49.486;10.792;2023-06-24T12:13:35;5.13;;;3.40;;
44995;SDS011;30729;49.486;10.792;2023-06-24T12:16:00;5.43;;;3.17;;
44995;SDS011;30729;49.486;10.792;2023-06-24T12:18:26;5.50;;;3.40;;
44995;SDS011;30729;49.486;10.792;2023-06-24T12:20:51;4.90;;;3.50;;
44995;SDS011;30729;49.486;10.792;2023-06-24T12:23:17;3.88;;;3.08;;
44995;SDS011;30729;49.486;10.792;2023-06-24T12:25:42;5.07;;;3.08;;
44995;SDS011;30729;49.486;10.792;2023-06-24T12:28:07;4.13;;;2.97;;
44995;SDS011;30729;49.486;10.792;2023-06-24T12:30:32;5.38;;;3.15;;
44995;SDS011;30729;49.486;10.792;2023-06-24T12:32:57;4.55;;;3.00;;
44995;SDS011;30729;49.486;10.792;2023-06-24T12:35:23;5.05;;;3.22;;
44995;SDS011;30729;49.486;10.792;2023-06-24T12:37:50;5.65;;;3.17;;
44995;SDS011;30729;49.486;10.792;2023-06-24T12:40:15;7.00;;;3.40;;
44995;SDS011;30729;49.486;10.792;2023-06-24T12:42:40;5.60;;;3.47;;
44995;SDS011;30729;49.486;10.792;2023-06-24T12:45:06;6.47;;;3.40;;
44995;SDS011;30729;49.486;10.792;2023-06-24T12:47:31;5.07;;;2.97;;
44995;SDS011;30729;49.486;10.792;2023-06-24T12:49:56;7.25;;;3.58;;
44995;SDS011;30729;49.486;10.792;2023-06-24T12:52:22;5.60;;;3.58;;
44995;SDS011;30729;49.486;10.792;2023-06-24T12:54:47;6.23;;;3.43;;
44995;SDS011;30729;49.486;10.792;2023-06-24T12:57:13;4.65;;;3.47;;
44995;SDS011;30729;49.486;10.792;2023-06-24T12:59:38;5.60;;;3.47;;
44995;SDS011;30729;49.486;10.792;2023-06-24T13:02:04;5.63;;;3.80;;
44995;SDS011;30729;49.486;10.792;2023-06-24T13:04:29;5.20;;;3.20;;
44995;SDS011;30729;49.486;10.792;2023-06-24T13:06:54;6.07;;;4.27;;
44995;SDS011;30729;49.486;10.792;2023-06-24T13:09:19;4.50;;;3.73;;
44995;SDS011;30729;49.486;10.792;2023-06-24T13:11:45;5.50;;;3.53;;
44995;SDS011;30729;49.486;10.792;2023-06-24T13:14:10;5.13;;;3.50;;
44995;SDS011;30729;49.486;10.792;2023-06-24T13:16:36;5.15;;;3.42;;
44995;SDS011;30729;49.486;10.792;2023-06-24T13:19:01;4.53;;;3.15;;
44995;SDS011;30729;49.486;10.792;2023-06-24T13:21:26;4.27;;;2.97;;
44995;SDS011;30729;49.486;10.792;2023-06-24T13:23:52;4.57;;;2.90;;
44995;SDS011;30729;49.486;10.792;2023-06-24T13:26:17;3.73;;;2.57;;
44995;SDS011;30729;49.486;10.792;2023-06-24T13:28:42;6.17;;;2.77;;
44995;SDS011;30729;49.486;10.792;2023-06-24T13:31:08;3.88;;;2.45;;
44995;SDS011;30729;49.486;10.792;2023-06-24T13:33:33;3.97;;;2.38;;
44995;SDS011;30729;49.486;10.792;2023-06-24T13:35:58;4.97;;;2.63;;
44995;SDS011;30729;49.486;10.792;2023-06-24T13:38:23;4.32;;;2.42;;
44995;SDS011;30729;49.486;10.792;2023-06-24T13:40:49;6.18;;;2.90;;
44995;SDS011;30729;49.486;10.792;2023-06-24T13:43:14;7.50;;;2.55;;
44995;SDS011;30729;49.486;10.792;2023-06-24T13:45:39;4.90;;;2.70;;
44995;SDS011;30729;49.486;10.792;2023-06-24T13:48:04;6.53;;;2.75;;
44995;SDS011;30729;49.486;10.792;2023-06-24T13:50:30;4.65;;;2.80;;
44995;SDS011;30729;49.486;10.792;2023-06-24T13:52:55;4.37;;;2.53;;
44995;SDS011;30729;49.486;10.792;2023-06-24T13:55:20;5.45;;;3.10;;
44995;SDS011;30729;49.486;10.792;2023-06-24T13:57:45;5.22;;;3.13;;
44995;SDS011;30729;49.486;10.792;2023-06-24T14:00:11;7.53;;;3.63;;
44995;SDS011;30729;49.486;10.792;2023-06-24T14:02:36;4.95;;;3.47;;
44995;SDS011;30729;49.486;10.792;2023-06-24T14:05:02;4.85;;;3.50;;
44995;SDS011;30729;49.486;10.792;2023-06-24T14:07:27;3.42;;;2.80;;
44995;SDS011;30729;49.486;10.792;2023-06-24T14:09:52;5.45;;;3.22;;
44995;SDS011;30729;49.486;10.792;2023-06-24T14:12:17;7.73;;;2.93;;
44995;SDS011;30729;49.486;10.792;2023-06-24T14:14:42;5.13;;;2.77;;
44995;SDS011;30729;49.486;10.792;2023-06-24T14:17:08;5.47;;;2.90;;
44995;SDS011;30729;49.486;10.792;2023-06-24T14:19:35;4.28;;;2.90;;
44995;SDS011;30729;49.486;10.792;2023-06-24T14:22:00;3.88;;;2.50;;
44995;SDS011;30729;49.486;10.792;2023-06-24T14:24:25;6.00;;;3.10;;
44995;SDS011;30729;49.486;10.792;2023-06-24T14:26:51;5.30;;;3.20;;
44995;SDS011;30729;49.486;10.792;2023-06-24T14:29:16;5.07;;;3.33;;
44995;SDS011;30729;49.486;10.792;2023-06-24T14:31:41;5.35;;;3.00;;
44995;SDS011;30729;49.486;10.792;2023-06-24T14:34:06;5.78;;;2.83;;